createdAt,value
2023-01-20T00:00:08.957Z,96940.09
2023-01-20T00:02:37.499Z,96937.16
2023-01-20T00:05:05.907Z,96932.88
2023-01-20T00:07:32.957Z,96942.75
2023-01-20T00:10:00.048Z,96937.66
2023-01-20T00:12:30.207Z,96939.50
2023-01-20T00:14:57.391Z,96943.56
2023-01-20T00:17:24.614Z,96939.50
2023-01-20T00:19:53.016Z,96942.22
2023-01-20T00:22:21.064Z,96944.59
2023-01-20T00:24:48.287Z,96941.66
2023-01-20T00:27:15.735Z,96938.19
2023-01-20T00:29:42.797Z,96943.28
2023-01-20T00:32:10.132Z,96931.78
2023-01-20T00:34:37.353Z,96944.91
2023-01-20T00:37:05.918Z,96938.78
2023-01-20T00:39:33.036Z,96944.66
2023-01-20T00:42:00.156Z,96938.22
2023-01-20T00:44:27.204Z,96928.31
2023-01-20T00:46:54.363Z,96928.59
2023-01-20T00:49:21.487Z,96922.44
2023-01-20T00:51:48.564Z,96930.22
2023-01-20T00:54:17.020Z,96940.41
2023-01-20T00:56:44.077Z,96952.69
2023-01-20T00:59:11.295Z,96949.22
2023-01-20T01:01:38.618Z,96950.28
2023-01-20T01:04:05.757Z,96942.25
2023-01-20T01:06:32.816Z,96959.91
2023-01-20T01:08:59.913Z,96960.72
2023-01-20T01:11:28.321Z,96966.34
2023-01-20T01:13:55.952Z,96960.22
2023-01-20T01:16:23.528Z,96966.88
2023-01-20T01:18:53.050Z,96980.84
2023-01-20T01:21:20.835Z,96981.38
2023-01-20T01:23:48.010Z,96989.41
2023-01-20T01:26:15.220Z,96991.84
2023-01-20T01:28:43.834Z,96990.47
2023-01-20T01:31:11.035Z,96984.59
2023-01-20T01:33:38.619Z,96988.34
2023-01-20T01:36:07.274Z,96979.25
2023-01-20T01:38:34.865Z,96986.22
2023-01-20T01:41:01.982Z,96993.19
2023-01-20T01:43:31.605Z,96995.88
2023-01-20T01:46:00.197Z,96990.50
2023-01-20T01:48:29.922Z,96985.69
2023-01-20T01:51:02.571Z,96987.03
2023-01-20T01:53:33.646Z,96981.94
2023-01-20T01:56:03.398Z,96982.22
2023-01-20T01:58:35.520Z,96976.81
2023-01-20T02:01:04.687Z,96975.50
2023-01-20T02:03:39.988Z,96966.13
2023-01-20T02:06:08.302Z,96976.56
2023-01-20T02:08:35.809Z,96968.78
2023-01-20T02:11:02.914Z,96975.22
2023-01-20T02:13:30.043Z,96970.13
2023-01-20T02:16:14.257Z,96973.59
2023-01-20T02:18:54.151Z,96982.75
2023-01-20T02:21:54.905Z,96981.38
2023-01-20T02:24:54.542Z,96973.63
2023-01-20T02:27:36.057Z,96976.81
2023-01-20T02:30:18.528Z,96978.63
2023-01-20T02:32:56.099Z,96982.28
2023-01-20T02:35:29.545Z,96971.75
2023-01-20T02:38:08.072Z,96964.94
2023-01-20T02:40:43.231Z,96977.88
2023-01-20T02:43:16.230Z,96980.63
2023-01-20T02:45:47.938Z,96978.94
2023-01-20T02:48:24.717Z,96979.72
2023-01-20T02:50:59.279Z,96984.53
2023-01-20T02:53:33.433Z,96987.00
2023-01-20T02:56:00.551Z,96988.59
2023-01-20T02:58:31.638Z,96993.44
2023-01-20T03:01:02.225Z,96990.81
2023-01-20T03:03:35.119Z,96997.06
2023-01-20T03:06:06.878Z,97002.72
2023-01-20T03:08:36.492Z,96997.94
2023-01-20T03:11:05.923Z,97000.38
2023-01-20T03:13:36.505Z,96999.63
2023-01-20T03:16:07.470Z,97004.22
2023-01-20T03:18:36.911Z,97008.28
2023-01-20T03:21:07.068Z,97010.69
2023-01-20T03:23:36.554Z,97003.72
2023-01-20T03:26:08.263Z,97017.44
2023-01-20T03:28:35.441Z,97023.34
2023-01-20T03:31:07.942Z,97022.06
2023-01-20T03:33:36.654Z,97023.16
2023-01-20T03:36:04.119Z,97032.34
2023-01-20T03:38:31.388Z,97033.97
2023-01-20T03:41:03.233Z,97034.94
2023-01-20T03:43:39.414Z,97040.81
2023-01-20T03:46:14.215Z,97046.41
2023-01-20T03:48:49.037Z,97048.56
2023-01-20T03:51:24.329Z,97058.50
2023-01-20T03:53:56.095Z,97053.09
2023-01-20T03:56:28.225Z,97062.16
2023-01-20T03:58:57.327Z,97058.00
2023-01-20T04:01:31.805Z,97059.53
2023-01-20T04:04:02.727Z,97030.84
2023-01-20T04:06:31.769Z,97061.63
2023-01-20T04:09:02.738Z,97064.06
2023-01-20T04:11:29.909Z,97065.44
2023-01-20T04:13:57.089Z,97069.47
2023-01-20T04:16:25.904Z,97069.22
2023-01-20T04:18:54.227Z,97060.47
2023-01-20T04:21:28.314Z,97065.31
2023-01-20T04:24:00.509Z,97056.50
2023-01-20T04:26:27.627Z,97071.25
2023-01-20T04:28:54.751Z,97074.47
2023-01-20T04:31:30.593Z,97083.09
2023-01-20T04:33:58.440Z,97086.91
2023-01-20T04:36:27.040Z,97086.56
2023-01-20T04:38:54.116Z,97088.19
2023-01-20T04:41:21.226Z,97093.56
2023-01-20T04:43:48.314Z,97089.53
2023-01-20T04:46:16.076Z,97099.78
2023-01-20T04:48:44.365Z,97099.75
2023-01-20T04:51:12.071Z,97102.69
2023-01-20T04:53:40.692Z,97104.38
2023-01-20T04:56:11.700Z,97106.81
2023-01-20T04:58:39.156Z,97100.59
2023-01-20T05:01:06.325Z,97106.47
2023-01-20T05:03:33.615Z,97105.69
2023-01-20T05:06:00.753Z,97109.19
2023-01-20T05:08:27.887Z,97114.53
2023-01-20T05:10:56.516Z,97113.16
2023-01-20T05:13:23.783Z,97123.09
2023-01-20T05:15:50.916Z,97128.13
2023-01-20T05:18:18.043Z,97124.88
2023-01-20T05:20:45.724Z,97137.75
2023-01-20T05:23:12.939Z,97137.75
2023-01-20T05:25:40.023Z,97138.78
2023-01-20T05:28:08.885Z,97145.53
2023-01-20T05:30:35.981Z,97132.94
2023-01-20T05:33:03.099Z,97142.59
2023-01-20T05:35:30.158Z,97148.00
2023-01-20T05:37:57.257Z,97145.56
2023-01-20T05:40:24.421Z,97142.94
2023-01-20T05:42:51.516Z,97155.59
2023-01-20T05:45:19.918Z,97152.66
2023-01-20T05:47:46.998Z,97156.16
2023-01-20T05:50:14.106Z,97158.59
2023-01-20T05:52:41.170Z,97161.28
2023-01-20T05:55:09.213Z,97159.13
2023-01-20T05:57:36.296Z,97168.84
2023-01-20T06:00:04.248Z,97164.03
2023-01-20T06:02:32.731Z,97161.63
2023-01-20T06:04:59.890Z,97168.38
2023-01-20T06:07:27.248Z,97169.44
2023-01-20T06:09:54.355Z,97169.16
2023-01-20T06:12:21.462Z,97171.81
2023-01-20T06:14:48.528Z,97178.00
2023-01-20T06:17:15.829Z,97175.59
2023-01-20T06:19:44.227Z,97179.59
2023-01-20T06:22:14.056Z,97177.44
2023-01-20T06:24:41.154Z,97179.84
2023-01-20T06:27:09.486Z,97180.94
2023-01-20T06:29:36.588Z,97187.13
2023-01-20T06:32:04.052Z,97185.25
2023-01-20T06:34:31.810Z,97190.63
2023-01-20T06:37:00.237Z,97184.69
2023-01-20T06:39:27.333Z,97181.75
2023-01-20T06:41:57.681Z,97175.06
2023-01-20T06:44:24.796Z,97192.22
2023-01-20T06:46:52.095Z,97195.72
2023-01-20T06:49:19.211Z,97196.25
2023-01-20T06:51:46.360Z,97201.63
2023-01-20T06:54:15.010Z,97204.84
2023-01-20T06:56:42.159Z,97194.38
2023-01-20T06:59:09.848Z,97211.53
2023-01-20T07:01:37.168Z,97210.47
2023-01-20T07:04:04.304Z,97224.44
2023-01-20T07:06:33.367Z,97227.66
2023-01-20T07:09:01.762Z,97235.72
2023-01-20T07:11:30.177Z,97222.03
2023-01-20T07:13:57.592Z,97230.06
2023-01-20T07:16:24.941Z,97240.00
2023-01-20T07:18:52.461Z,97237.56
2023-01-20T07:21:20.665Z,97234.88
2023-01-20T07:23:48.413Z,97244.56
2023-01-20T07:26:17.119Z,97241.34
2023-01-20T07:28:46.323Z,97257.66
2023-01-20T07:31:15.515Z,97259.03
2023-01-20T07:33:42.852Z,97260.13
2023-01-20T07:36:11.382Z,97260.38
2023-01-20T07:38:38.942Z,97267.88
2023-01-20T07:41:07.762Z,97270.28
2023-01-20T07:43:34.893Z,97274.84
2023-01-20T07:46:05.042Z,97256.88
2023-01-20T07:48:33.320Z,97277.53
2023-01-20T07:51:02.059Z,97283.44
2023-01-20T07:53:29.210Z,97283.94
2023-01-20T07:55:56.341Z,97290.66
2023-01-20T07:58:23.484Z,97294.69
2023-01-20T08:00:50.691Z,97307.81
2023-01-20T08:03:19.116Z,97301.66
2023-01-20T08:05:46.187Z,97304.88
2023-01-20T08:08:13.410Z,97297.38
2023-01-20T08:10:40.485Z,97307.56
2023-01-20T08:13:07.577Z,97293.34
2023-01-20T08:15:34.705Z,97313.75
2023-01-20T08:18:01.756Z,97315.09
2023-01-20T08:20:30.139Z,97319.09
2023-01-20T08:22:57.226Z,97320.44
2023-01-20T08:25:24.405Z,97330.91
2023-01-20T08:27:51.495Z,97332.75
2023-01-20T08:30:18.968Z,97332.75
2023-01-20T08:32:46.025Z,97337.59
2023-01-20T08:35:13.314Z,97340.53
2023-01-20T08:37:42.037Z,97343.50
2023-01-20T08:40:11.012Z,97347.22
2023-01-20T08:42:38.850Z,97342.16
2023-01-20T08:45:08.121Z,97346.16
2023-01-20T08:47:36.297Z,97353.66
2023-01-20T08:50:03.792Z,97343.47
2023-01-20T08:52:30.929Z,97366.25
2023-01-20T08:54:59.417Z,97369.50
2023-01-20T08:57:26.859Z,97363.59
2023-01-20T08:59:54.851Z,97369.75
2023-01-20T09:02:22.183Z,97370.28
2023-01-20T09:04:49.390Z,97375.41
2023-01-20T09:07:18.636Z,97378.34
2023-01-20T09:09:46.230Z,97374.88
2023-01-20T09:12:14.654Z,97377.78
2023-01-20T09:14:41.765Z,97380.75
2023-01-20T09:17:08.815Z,97381.84
2023-01-20T09:19:35.869Z,97387.47
2023-01-20T09:22:03.081Z,97388.81
2023-01-20T09:24:30.159Z,97394.19
2023-01-20T09:26:57.236Z,97388.28
2023-01-20T09:29:25.880Z,97391.75
2023-01-20T09:31:54.467Z,97389.59
2023-01-20T09:34:21.646Z,97398.69
2023-01-20T09:36:50.837Z,97394.94
2023-01-20T09:39:18.266Z,97395.97
2023-01-20T09:41:47.815Z,97405.38
2023-01-20T09:44:34.770Z,97399.75
2023-01-20T09:47:16.556Z,97411.03
2023-01-20T09:50:01.454Z,97405.94
2023-01-20T09:52:33.531Z,97413.19
2023-01-20T09:55:07.795Z,97415.59
2023-01-20T09:57:37.369Z,97411.28
2023-01-20T10:00:12.143Z,97407.03
2023-01-20T10:02:43.652Z,97416.41
2023-01-20T10:05:13.742Z,97421.75
2023-01-20T10:07:49.889Z,97413.97
2023-01-20T10:10:20.706Z,97416.41
2023-01-20T10:12:52.129Z,97415.31
2023-01-20T10:15:26.089Z,97407.00
2023-01-20T10:17:58.616Z,97411.03
2023-01-20T10:20:32.020Z,97407.81
2023-01-20T10:23:05.444Z,97419.09
2023-01-20T10:25:39.609Z,97404.56
2023-01-20T10:28:11.290Z,97409.94
2023-01-20T10:30:40.337Z,97412.06
2023-01-20T10:33:11.259Z,97410.44
2023-01-20T10:35:42.981Z,97405.91
2023-01-20T10:38:24.959Z,97405.34
2023-01-20T10:40:57.386Z,97415.81
2023-01-20T10:43:25.570Z,97408.31
2023-01-20T10:46:10.398Z,97407.00
2023-01-20T10:49:04.860Z,97411.03
2023-01-20T10:51:40.372Z,97413.72
2023-01-20T10:54:19.241Z,97413.72
2023-01-20T10:56:48.337Z,97410.22
2023-01-20T10:59:17.614Z,97414.22
2023-01-20T11:01:59.212Z,97412.34
2023-01-20T11:04:33.696Z,97410.75
2023-01-20T11:07:00.907Z,97401.34
2023-01-20T11:09:33.634Z,97406.69
2023-01-20T11:12:03.319Z,97411.28
2023-01-20T11:14:31.262Z,97412.34
2023-01-20T11:17:04.209Z,97412.34
2023-01-20T11:19:45.965Z,97416.34
2023-01-20T11:22:14.916Z,97418.19
2023-01-20T11:24:43.588Z,97421.41
2023-01-20T11:27:14.371Z,97413.91
2023-01-20T11:29:45.227Z,97419.81
2023-01-20T11:32:28.756Z,97419.53
2023-01-20T11:34:57.077Z,97414.19
2023-01-20T11:37:25.816Z,97408.31
2023-01-20T11:40:15.311Z,97412.34
2023-01-20T11:42:44.798Z,97411.81
2023-01-20T11:45:30.361Z,97412.34
2023-01-20T11:48:05.581Z,97416.13
2023-01-20T11:50:35.477Z,97417.44
2023-01-20T11:53:16.572Z,97416.34
2023-01-20T11:55:48.514Z,97399.72
2023-01-20T11:58:18.788Z,97424.13
2023-01-20T12:00:46.373Z,97413.94
2023-01-20T12:03:51.867Z,97421.16
2023-01-20T12:06:22.969Z,97416.88
2023-01-20T12:08:52.544Z,97424.94
2023-01-20T12:11:25.872Z,97424.38
2023-01-20T12:14:05.207Z,97417.91
2023-01-20T12:16:33.324Z,97421.94
2023-01-20T12:19:10.957Z,97423.25
2023-01-20T12:21:42.811Z,97425.41
2023-01-20T12:24:18.514Z,97425.69
2023-01-20T12:26:45.720Z,97420.03
2023-01-20T12:29:20.486Z,97429.47
2023-01-20T12:31:48.055Z,97431.59
2023-01-20T12:34:24.092Z,97428.41
2023-01-20T12:37:06.934Z,97427.59
2023-01-20T12:39:52.457Z,97427.06
2023-01-20T12:42:41.079Z,97430.53
2023-01-20T12:45:20.744Z,97433.22
2023-01-20T12:48:03.065Z,97423.56
2023-01-20T12:50:44.495Z,97429.75
2023-01-20T12:53:26.458Z,97431.06
2023-01-20T12:56:05.713Z,97438.28
2023-01-20T12:58:45.266Z,97431.84
2023-01-20T13:01:33.297Z,97439.34
2023-01-20T13:04:34.598Z,97433.69
2023-01-20T13:07:14.311Z,97434.75
2023-01-20T13:10:15.587Z,97439.31
2023-01-20T13:12:51.584Z,97442.78
2023-01-20T13:15:25.324Z,97438.22
2023-01-20T13:18:12.975Z,97445.47
2023-01-20T13:20:42.580Z,97432.78
2023-01-20T13:23:14.334Z,97445.50
2023-01-20T13:25:43.930Z,97447.63
2023-01-20T13:28:22.417Z,97450.59
2023-01-20T13:30:51.620Z,97455.16
2023-01-20T13:33:30.606Z,97457.03
2023-01-20T13:35:57.932Z,97453.78
2023-01-20T13:38:28.094Z,97457.56
2023-01-20T13:40:57.536Z,97466.16
2023-01-20T13:43:49.423Z,97471.75
2023-01-20T13:46:45.163Z,97478.19
2023-01-20T13:49:23.769Z,97481.69
2023-01-20T13:51:50.959Z,97482.47
2023-01-20T13:54:41.143Z,97481.13
2023-01-20T13:57:34.220Z,97481.63
2023-01-20T14:00:01.900Z,97486.13
2023-01-20T14:02:35.466Z,97482.09
2023-01-20T14:05:02.674Z,97483.44
2023-01-20T14:07:31.164Z,97483.16
2023-01-20T14:10:00.747Z,97490.16
2023-01-20T14:12:28.203Z,97494.41
2023-01-20T14:14:55.610Z,97491.19
2023-01-20T14:17:24.519Z,97483.16
2023-01-20T14:19:54.382Z,97496.66
2023-01-20T14:22:24.472Z,97500.44
2023-01-20T14:24:52.797Z,97502.56
2023-01-20T14:27:24.967Z,97511.66
2023-01-20T14:29:54.007Z,97511.66
2023-01-20T14:32:24.864Z,97513.53
2023-01-20T14:34:52.979Z,97513.78
2023-01-20T14:37:28.702Z,97510.03
2023-01-20T14:39:57.703Z,97520.78
2023-01-20T14:42:27.513Z,97525.06
2023-01-20T14:44:56.215Z,97527.44
2023-01-20T14:47:25.519Z,97526.09
2023-01-20T14:49:54.184Z,97540.28
2023-01-20T14:52:24.903Z,97537.03
2023-01-20T14:54:52.124Z,97547.44
2023-01-20T14:57:22.183Z,97551.16
2023-01-20T15:00:02.810Z,97549.56
2023-01-20T15:02:32.388Z,97554.38
2023-01-20T15:04:59.864Z,97559.75
2023-01-20T15:07:27.344Z,97550.59
2023-01-20T15:09:59.974Z,97567.53
2023-01-20T15:12:39.020Z,97557.91
2023-01-20T15:15:29.599Z,97567.59
2023-01-20T15:18:14.428Z,97567.59
2023-01-20T15:20:43.135Z,97564.63
2023-01-20T15:23:16.912Z,97576.44
2023-01-20T15:25:44.049Z,97567.03
2023-01-20T15:28:22.036Z,97573.75
2023-01-20T15:30:51.203Z,97576.13
2023-01-20T15:33:18.464Z,97579.34
2023-01-20T15:35:45.581Z,97586.28
2023-01-20T15:38:12.691Z,97588.44
2023-01-20T15:40:39.927Z,97592.72
2023-01-20T15:43:14.742Z,97595.41
2023-01-20T15:45:42.105Z,97599.69
2023-01-20T15:48:14.720Z,97591.06
2023-01-20T15:50:42.053Z,97583.72
2023-01-20T15:53:12.355Z,97602.00
2023-01-20T15:55:48.719Z,97600.09
2023-01-20T15:58:22.930Z,97605.47
2023-01-20T16:00:50.285Z,97607.66
2023-01-20T16:03:18.702Z,97603.66
2023-01-20T16:05:48.157Z,97609.06
2023-01-20T16:08:16.335Z,97610.94
2023-01-20T16:10:43.478Z,97612.53
2023-01-20T16:13:10.921Z,97618.16
2023-01-20T16:15:39.050Z,97617.34
2023-01-20T16:18:06.403Z,97625.38
2023-01-20T16:20:35.376Z,97624.03
2023-01-20T16:23:02.505Z,97617.59
2023-01-20T16:25:29.909Z,97622.16
2023-01-20T16:27:57.539Z,97621.34
2023-01-20T16:30:25.138Z,97618.13
2023-01-20T16:32:52.326Z,97620.81
2023-01-20T16:35:20.683Z,97615.09
2023-01-20T16:37:49.336Z,97628.28
2023-01-20T16:40:19.404Z,97632.78
2023-01-20T16:42:47.329Z,97632.72
2023-01-20T16:45:26.171Z,97637.03
2023-01-20T16:47:53.595Z,97641.56
2023-01-20T16:50:21.616Z,97642.13
2023-01-20T16:52:50.057Z,97639.44
2023-01-20T16:55:17.244Z,97639.72
2023-01-20T16:57:44.289Z,97629.75
2023-01-20T17:00:12.354Z,97652.88
2023-01-20T17:02:39.731Z,97650.75
2023-01-20T17:05:08.069Z,97656.06
2023-01-20T17:07:35.535Z,97656.19
2023-01-20T17:10:04.495Z,97661.84
2023-01-20T17:12:31.581Z,97667.31
2023-01-20T17:14:58.920Z,97668.44
2023-01-20T17:17:25.969Z,97670.13
2023-01-20T17:19:53.054Z,97675.03
2023-01-20T17:22:20.164Z,97676.13
2023-01-20T17:24:47.248Z,97678.84
2023-01-20T17:27:15.721Z,97675.56
2023-01-20T17:29:42.804Z,97674.88
2023-01-20T17:32:10.047Z,97688.97
2023-01-20T17:34:37.167Z,97679.31
2023-01-20T17:37:04.265Z,97685.50
2023-01-20T17:39:31.361Z,97691.41
2023-01-20T17:41:58.434Z,97687.13
2023-01-20T17:44:26.952Z,97694.13
2023-01-20T17:46:54.051Z,97695.44
2023-01-20T17:49:21.111Z,97705.13
2023-01-20T17:51:48.195Z,97699.75
2023-01-20T17:54:15.474Z,97701.34
2023-01-20T17:56:42.648Z,97705.09
2023-01-20T17:59:10.022Z,97708.84
2023-01-20T18:01:38.431Z,97705.34
2023-01-20T18:04:05.599Z,97710.47
2023-01-20T18:06:32.858Z,97716.84
2023-01-20T18:08:59.920Z,97712.25
2023-01-20T18:11:29.328Z,97712.53
2023-01-20T18:13:58.212Z,97712.75
2023-01-20T18:16:28.270Z,97714.34
2023-01-20T18:18:57.443Z,97713.00
2023-01-20T18:21:25.954Z,97708.97
2023-01-20T18:23:53.724Z,97711.88
2023-01-20T18:26:23.039Z,97722.59
2023-01-20T18:28:53.875Z,97726.06
2023-01-20T18:31:22.442Z,97728.16
2023-01-20T18:33:51.247Z,97726.06
2023-01-20T18:36:21.539Z,97723.63
2023-01-20T18:38:49.712Z,97714.47
2023-01-20T18:41:17.223Z,97730.59
2023-01-20T18:43:44.329Z,97737.31
2023-01-20T18:46:11.898Z,97732.44
2023-01-20T18:48:40.249Z,97725.81
2023-01-20T18:51:08.687Z,97724.19
2023-01-20T18:53:37.160Z,97732.03
2023-01-20T18:56:06.800Z,97737.75
2023-01-20T18:58:35.052Z,97731.38
2023-01-20T19:01:03.141Z,97741.63
2023-01-20T19:03:30.444Z,97731.19
2023-01-20T19:06:03.469Z,97733.56
2023-01-20T19:08:30.808Z,97737.59
2023-01-20T19:11:01.148Z,97734.06
2023-01-20T19:13:28.315Z,97749.41
2023-01-20T19:15:55.741Z,97725.41
2023-01-20T19:18:23.088Z,97733.72
2023-01-20T19:20:50.484Z,97741.03
2023-01-20T19:23:17.566Z,97740.25
2023-01-20T19:25:44.662Z,97734.38
2023-01-20T19:28:13.184Z,97741.34
2023-01-20T19:30:40.279Z,97750.13
2023-01-20T19:33:07.389Z,97744.78
2023-01-20T19:35:34.476Z,97749.56
2023-01-20T19:38:01.599Z,97756.03
2023-01-20T19:40:28.672Z,97751.72
2023-01-20T19:42:55.758Z,97749.53
2023-01-20T19:45:26.949Z,97759.50
2023-01-20T19:47:55.952Z,97761.63
2023-01-20T19:50:23.024Z,97757.56
2023-01-20T19:52:50.098Z,97772.03
2023-01-20T19:55:17.174Z,97780.34
2023-01-20T19:57:44.240Z,97758.78
2023-01-20T20:00:12.582Z,97780.22
2023-01-20T20:02:41.047Z,97774.28
2023-01-20T20:05:08.756Z,97776.13
2023-01-20T20:07:35.857Z,97784.19
2023-01-20T20:10:03.240Z,97776.13
2023-01-20T20:12:30.302Z,97775.28
2023-01-20T20:14:57.552Z,97787.16
2023-01-20T20:17:24.851Z,97786.38
2023-01-20T20:19:53.261Z,97789.00
2023-01-20T20:22:20.363Z,97788.69
2023-01-20T20:24:47.447Z,97797.88
2023-01-20T20:27:14.538Z,97802.66
2023-01-20T20:29:41.604Z,97797.03
2023-01-20T20:32:08.900Z,97790.56
2023-01-20T20:34:36.136Z,97806.38
2023-01-20T20:37:04.621Z,97801.47
2023-01-20T20:39:31.716Z,97798.78
2023-01-20T20:41:58.785Z,97791.81
2023-01-20T20:44:25.898Z,97801.72
2023-01-20T20:46:52.980Z,97804.97
2023-01-20T20:49:20.244Z,97805.44
2023-01-20T20:51:47.324Z,97801.16
2023-01-20T20:54:15.771Z,97801.09
2023-01-20T20:56:43.111Z,97801.66
2023-01-20T20:59:10.239Z,97805.38
2023-01-20T21:01:37.643Z,97806.97
2023-01-20T21:04:05.081Z,97801.59
2023-01-20T21:06:32.463Z,97804.09
2023-01-20T21:09:00.248Z,97804.63
2023-01-20T21:11:29.021Z,97811.34
2023-01-20T21:13:56.130Z,97803.84
2023-01-20T21:16:24.118Z,97806.78
2023-01-20T21:18:52.373Z,97796.78
2023-01-20T21:21:20.320Z,97807.81
2023-01-20T21:23:49.159Z,97808.91
2023-01-20T21:26:16.315Z,97806.97
2023-01-20T21:28:44.753Z,97806.16
2023-01-20T21:31:13.676Z,97802.88
2023-01-20T21:33:42.193Z,97808.00
2023-01-20T21:36:10.052Z,97820.38
2023-01-20T21:38:37.149Z,97820.06
2023-01-20T21:41:04.951Z,97823.03
2023-01-20T21:43:32.478Z,97811.16
2023-01-20T21:46:00.917Z,97819.25
2023-01-20T21:48:27.980Z,97827.03
2023-01-20T21:50:55.064Z,97827.78
2023-01-20T21:53:22.154Z,97828.34
2023-01-20T21:55:49.231Z,97835.59
2023-01-20T21:58:16.339Z,97842.88
2023-01-20T22:00:43.454Z,97840.97
2023-01-20T22:03:11.888Z,97838.03
2023-01-20T22:05:39.046Z,97846.63
2023-01-20T22:08:06.281Z,97850.91
2023-01-20T22:10:33.340Z,97844.19
2023-01-20T22:13:00.410Z,97848.75
2023-01-20T22:15:27.675Z,97859.47
2023-01-20T22:17:54.739Z,97857.03
2023-01-20T22:20:23.151Z,97857.28
2023-01-20T22:22:50.263Z,97861.84
2023-01-20T22:25:17.363Z,97854.84
2023-01-20T22:27:48.384Z,97860.22
2023-01-20T22:30:16.479Z,97858.31
2023-01-20T22:32:43.695Z,97862.31
2023-01-20T22:35:10.751Z,97867.38
2023-01-20T22:37:39.222Z,97863.84
2023-01-20T22:40:07.005Z,97860.63
2023-01-20T22:42:34.415Z,97856.03
2023-01-20T22:45:01.677Z,97868.41
2023-01-20T22:47:28.846Z,97865.78
2023-01-20T22:49:55.905Z,97862.34
2023-01-20T22:52:23.221Z,97862.34
2023-01-20T22:54:51.623Z,97863.13
2023-01-20T22:57:18.690Z,97867.72
2023-01-20T22:59:45.768Z,97870.38
2023-01-20T23:02:12.858Z,97872.53
2023-01-20T23:04:40.083Z,97873.59
2023-01-20T23:07:07.202Z,97868.22
2023-01-20T23:09:34.277Z,97877.56
2023-01-20T23:12:02.879Z,97876.47
2023-01-20T23:14:29.989Z,97877.81
2023-01-20T23:16:57.083Z,97876.78
2023-01-20T23:19:24.164Z,97875.41
2023-01-20T23:21:51.316Z,97874.53
2023-01-20T23:24:18.573Z,97871.00
2023-01-20T23:26:45.660Z,97880.16
2023-01-20T23:29:14.084Z,97880.97
2023-01-20T23:31:41.184Z,97883.09
2023-01-20T23:34:08.291Z,97881.72
2023-01-20T23:36:35.543Z,97883.63
2023-01-20T23:39:02.671Z,97890.94
2023-01-20T23:41:29.771Z,97882.34
2023-01-20T23:43:56.876Z,97896.31
2023-01-20T23:46:25.450Z,97888.25
2023-01-20T23:48:52.535Z,97893.06
2023-01-20T23:51:19.688Z,97894.66
2023-01-20T23:53:46.850Z,97887.94
2023-01-20T23:56:15.911Z,97891.19
2023-01-20T23:58:43.391Z,97889.53
